createdAt,value
2023-03-14T00:01:35.412Z,93390.72
2023-03-14T00:04:06.011Z,93401.69
2023-03-14T00:06:32.680Z,93404.59
2023-03-14T00:09:00.644Z,93401.69
2023-03-14T00:11:27.635Z,93409.03
2023-03-14T00:13:54.629Z,93411.84
2023-03-14T00:16:23.072Z,93414.72
2023-03-14T00:18:49.799Z,93409.38
2023-03-14T00:21:17.050Z,93410.03
2023-03-14T00:23:44.440Z,93419.25
2023-03-14T00:26:13.326Z,93412.38
2023-03-14T00:28:41.588Z,93409.84
2023-03-14T00:31:12.300Z,93406.50
2023-03-14T00:33:41.731Z,93410.78
2023-03-14T00:36:11.496Z,93415.59
2023-03-14T00:38:40.084Z,93411.38
2023-03-14T00:41:08.907Z,93416.09
2023-03-14T00:43:35.975Z,93417.06
2023-03-14T00:46:02.699Z,93425.81
2023-03-14T00:48:29.386Z,93434.22
2023-03-14T00:50:57.421Z,93435.50
2023-03-14T00:53:24.528Z,93447.66
2023-03-14T00:55:51.677Z,93442.84
2023-03-14T00:58:19.262Z,93444.09
2023-03-14T01:00:47.095Z,93456.06
2023-03-14T01:03:15.502Z,93454.50
2023-03-14T01:05:43.140Z,93454.00
2023-03-14T01:08:12.957Z,93459.28
2023-03-14T01:10:40.159Z,93469.59
2023-03-14T01:13:07.135Z,93471.13
2023-03-14T01:15:33.961Z,93465.06
2023-03-14T01:18:00.837Z,93469.88
2023-03-14T01:20:27.780Z,93473.41
2023-03-14T01:22:54.703Z,93476.09
2023-03-14T01:25:22.867Z,93482.25
2023-03-14T01:27:49.819Z,93490.28
2023-03-14T01:30:19.236Z,93488.72
2023-03-14T01:32:45.832Z,93482.94
2023-03-14T01:35:12.813Z,93476.56
2023-03-14T01:37:39.590Z,93480.50
2023-03-14T01:40:12.125Z,93475.50
2023-03-14T01:42:46.823Z,93477.16
2023-03-14T01:45:53.067Z,93469.31
2023-03-14T01:48:20.029Z,93467.53
2023-03-14T01:50:47.261Z,93463.13
2023-03-14T01:53:15.040Z,93466.63
2023-03-14T01:55:42.021Z,93476.72
2023-03-14T01:58:10.842Z,93480.13
2023-03-14T02:00:37.980Z,93489.91
2023-03-14T02:03:11.873Z,93485.50
2023-03-14T02:05:41.916Z,93489.22
2023-03-14T02:08:18.588Z,93482.94
2023-03-14T02:10:54.794Z,93482.94
2023-03-14T02:13:39.409Z,93479.00
2023-03-14T02:16:38.716Z,93479.59
2023-03-14T02:19:47.530Z,93494.75
2023-03-14T02:22:23.587Z,93501.19
2023-03-14T02:25:04.850Z,93497.59
2023-03-14T02:27:34.191Z,93510.16
2023-03-14T02:30:03.768Z,93498.47
2023-03-14T02:32:33.588Z,93499.69
2023-03-14T02:35:04.204Z,93480.56
2023-03-14T02:37:37.879Z,93466.22
2023-03-14T02:40:06.264Z,93478.69
2023-03-14T02:42:36.481Z,93467.94
2023-03-14T02:45:36.490Z,93463.25
2023-03-14T02:48:08.999Z,93448.84
2023-03-14T02:50:38.681Z,93428.06
2023-03-14T02:53:06.485Z,93437.91
2023-03-14T02:55:33.172Z,93437.19
2023-03-14T02:58:06.603Z,93420.41
2023-03-14T03:00:34.361Z,93412.34
2023-03-14T03:03:03.032Z,93407.41
2023-03-14T03:05:29.994Z,93404.81
2023-03-14T03:07:58.471Z,93401.97
2023-03-14T03:10:26.416Z,93400.97
2023-03-14T03:12:53.311Z,93398.88
2023-03-14T03:15:24.697Z,93392.09
2023-03-14T03:17:53.315Z,93389.25
2023-03-14T03:20:21.082Z,93372.44
2023-03-14T03:22:47.953Z,93365.91
2023-03-14T03:25:14.655Z,93362.56
2023-03-14T03:27:41.763Z,93371.59
2023-03-14T03:30:09.837Z,93360.53
2023-03-14T03:32:38.404Z,93364.78
2023-03-14T03:35:09.163Z,93362.72
2023-03-14T03:37:39.216Z,93373.25
2023-03-14T03:40:08.862Z,93360.06
2023-03-14T03:42:37.880Z,93357.69
2023-03-14T03:45:08.848Z,93367.66
2023-03-14T03:47:42.394Z,93371.06
2023-03-14T03:50:10.177Z,93364.25
2023-03-14T03:52:36.925Z,93367.41
2023-03-14T03:55:04.094Z,93372.19
2023-03-14T03:57:30.796Z,93363.78
2023-03-14T03:59:57.671Z,93364.53
2023-03-14T04:02:24.709Z,93362.66
2023-03-14T04:04:53.724Z,93355.53
2023-03-14T04:07:22.275Z,93356.34
2023-03-14T04:09:49.610Z,93348.44
2023-03-14T04:12:25.814Z,93344.53
2023-03-14T04:15:05.720Z,93329.47
2023-03-14T04:17:32.565Z,93318.34
2023-03-14T04:20:00.811Z,93317.00
2023-03-14T04:22:35.019Z,93313.81
2023-03-14T04:25:03.382Z,93316.66
2023-03-14T04:27:33.668Z,93314.28
2023-03-14T04:30:02.251Z,93319.75
2023-03-14T04:32:45.722Z,93310.50
2023-03-14T04:35:14.375Z,93299.97
2023-03-14T04:37:42.983Z,93293.91
2023-03-14T04:40:12.318Z,93284.66
2023-03-14T04:42:39.225Z,93279.59
2023-03-14T04:45:07.919Z,93279.03
2023-03-14T04:47:35.594Z,93275.34
2023-03-14T04:50:03.193Z,93274.06
2023-03-14T04:52:31.532Z,93272.94
2023-03-14T04:54:59.615Z,93268.94
2023-03-14T04:57:27.431Z,93273.94
2023-03-14T04:59:55.050Z,93271.06
2023-03-14T05:02:42.046Z,93250.28
2023-03-14T05:05:17.991Z,93241.53
2023-03-14T05:08:04.525Z,93250.00
2023-03-14T05:10:53.895Z,93241.81
2023-03-14T05:13:40.375Z,93242.09
2023-03-14T05:16:23.150Z,93239.25
2023-03-14T05:19:06.150Z,93226.34
2023-03-14T05:21:58.668Z,93230.84
2023-03-14T05:25:07.811Z,93226.91
2023-03-14T05:27:54.676Z,93209.41
2023-03-14T05:30:37.083Z,93216.94
2023-03-14T05:33:24.515Z,93205.03
2023-03-14T05:36:11.934Z,93207.75
2023-03-14T05:39:00.391Z,93196.63
2023-03-14T05:41:49.391Z,93186.03
2023-03-14T05:44:19.255Z,93194.16
2023-03-14T05:47:04.961Z,93197.22
2023-03-14T05:50:03.996Z,93182.91
2023-03-14T05:52:54.066Z,93184.97
2023-03-14T05:55:41.252Z,93191.06
2023-03-14T05:58:33.547Z,93192.88
2023-03-14T06:01:18.373Z,93185.28
2023-03-14T06:04:05.627Z,93182.84
2023-03-14T06:06:33.137Z,93176.53
2023-03-14T06:09:01.166Z,93171.47
2023-03-14T06:11:29.320Z,93159.84
2023-03-14T06:13:57.832Z,93149.91
2023-03-14T06:16:24.917Z,93147.56
2023-03-14T06:18:53.904Z,93132.53
2023-03-14T06:21:21.809Z,93118.59
2023-03-14T06:23:51.489Z,93119.56
2023-03-14T06:26:20.514Z,93130.59
2023-03-14T06:28:47.180Z,93127.47
2023-03-14T06:31:15.538Z,93148.53
2023-03-14T06:33:51.529Z,93145.19
2023-03-14T06:36:19.072Z,93157.28
2023-03-14T06:38:47.474Z,93165.94
2023-03-14T06:41:14.793Z,93176.16
2023-03-14T06:43:44.137Z,93176.22
2023-03-14T06:46:12.007Z,93174.25
2023-03-14T06:48:42.370Z,93178.50
2023-03-14T06:51:09.189Z,93163.84
2023-03-14T06:53:37.248Z,93162.06
2023-03-14T06:56:04.475Z,93166.84
2023-03-14T06:58:33.436Z,93167.09
2023-03-14T07:01:01.938Z,93169.47
2023-03-14T07:03:34.153Z,93161.78
2023-03-14T07:06:02.821Z,93163.56
2023-03-14T07:08:29.464Z,93166.97
2023-03-14T07:10:57.938Z,93170.38
2023-03-14T07:13:26.737Z,93174.31
2023-03-14T07:16:07.298Z,93172.38
2023-03-14T07:18:34.067Z,93175.53
2023-03-14T07:21:06.358Z,93169.69
2023-03-14T07:23:33.183Z,93169.34
2023-03-14T07:25:59.857Z,93166.06
2023-03-14T07:28:28.271Z,93155.16
2023-03-14T07:31:09.369Z,93161.41
2023-03-14T07:33:37.721Z,93165.34
2023-03-14T07:36:08.525Z,93159.50
2023-03-14T07:38:35.513Z,93150.44
2023-03-14T07:41:10.991Z,93160.88
2023-03-14T07:43:45.793Z,93166.66
2023-03-14T07:46:12.590Z,93165.31
2023-03-14T07:48:39.937Z,93158.94
2023-03-14T07:51:08.653Z,93159.75
2023-03-14T07:53:35.320Z,93157.91
2023-03-14T07:56:02.340Z,93154.50
2023-03-14T07:58:29.047Z,93156.63
2023-03-14T08:00:55.843Z,93156.31
2023-03-14T08:03:22.464Z,93155.53
2023-03-14T08:05:50.610Z,93154.75
2023-03-14T08:08:19.340Z,93154.50
2023-03-14T08:10:47.614Z,93156.63
2023-03-14T08:13:15.155Z,93156.31
2023-03-14T08:15:42.221Z,93159.44
2023-03-14T08:18:09.027Z,93159.44
2023-03-14T08:20:37.537Z,93165.03
2023-03-14T08:23:04.274Z,93171.84
2023-03-14T08:25:33.350Z,93166.59
2023-03-14T08:28:00.105Z,93161.41
2023-03-14T08:30:29.703Z,93168.03
2023-03-14T08:32:57.702Z,93171.22
2023-03-14T08:35:24.823Z,93169.69
2023-03-14T08:37:52.955Z,93173.09
2023-03-14T08:40:20.036Z,93166.25
2023-03-14T08:42:48.168Z,93181.78
2023-03-14T08:45:17.401Z,93184.13
2023-03-14T08:47:44.625Z,93184.59
2023-03-14T08:50:16.058Z,93184.34
2023-03-14T08:52:43.452Z,93177.97
2023-03-14T08:55:11.070Z,93170.06
2023-03-14T08:57:37.814Z,93164.03
2023-03-14T09:00:13.177Z,93162.47
2023-03-14T09:02:40.044Z,93164.09
2023-03-14T09:05:10.228Z,93161.47
2023-03-14T09:07:37.049Z,93156.78
2023-03-14T09:10:05.630Z,93158.63
2023-03-14T09:12:32.370Z,93165.19
2023-03-14T09:14:59.077Z,93172.50
2023-03-14T09:17:27.154Z,93161.59
2023-03-14T09:19:54.094Z,93163.09
2023-03-14T09:22:21.507Z,93168.06
2023-03-14T09:24:48.424Z,93166.22
2023-03-14T09:27:15.349Z,93162.78
2023-03-14T09:29:42.352Z,93165.66
2023-03-14T09:32:09.474Z,93171.13
2023-03-14T09:34:37.429Z,93173.16
2023-03-14T09:37:04.457Z,93167.91
2023-03-14T09:39:31.069Z,93172.31
2023-03-14T09:42:02.004Z,93174.88
2023-03-14T09:44:31.238Z,93173.25
2023-03-14T09:47:01.664Z,93168.38
2023-03-14T09:49:30.305Z,93168.00
2023-03-14T09:52:04.116Z,93154.41
2023-03-14T09:54:38.216Z,93167.75
2023-03-14T09:57:06.884Z,93167.34
2023-03-14T09:59:36.174Z,93170.06
2023-03-14T10:02:14.895Z,93171.16
2023-03-14T10:04:45.457Z,93174.88
2023-03-14T10:07:16.546Z,93173.22
2023-03-14T10:09:45.114Z,93168.22
2023-03-14T10:12:12.852Z,93167.31
2023-03-14T10:14:48.430Z,93172.69
2023-03-14T10:17:16.805Z,93168.41
2023-03-14T10:20:00.851Z,93170.09
2023-03-14T10:22:31.661Z,93164.00
2023-03-14T10:25:02.210Z,93165.94
2023-03-14T10:27:32.074Z,93160.63
2023-03-14T10:30:01.155Z,93158.47
2023-03-14T10:32:35.344Z,93152.53
2023-03-14T10:35:23.697Z,93162.97
2023-03-14T10:37:57.884Z,93165.41
2023-03-14T10:40:29.839Z,93155.56
2023-03-14T10:42:58.751Z,93157.47
2023-03-14T10:45:33.216Z,93157.78
2023-03-14T10:48:07.238Z,93160.16
2023-03-14T10:50:34.052Z,93166.78
2023-03-14T10:53:07.342Z,93158.53
2023-03-14T10:55:42.098Z,93166.00
2023-03-14T10:58:19.923Z,93158.34
2023-03-14T11:00:49.778Z,93162.53
2023-03-14T11:03:17.792Z,93159.88
2023-03-14T11:05:50.793Z,93160.06
2023-03-14T11:08:25.432Z,93162.03
2023-03-14T11:10:55.685Z,93157.38
2023-03-14T11:13:28.104Z,93155.59
2023-03-14T11:16:06.504Z,93154.31
2023-03-14T11:18:59.518Z,93148.22
2023-03-14T11:21:32.535Z,93149.38
2023-03-14T11:24:14.944Z,93148.53
2023-03-14T11:26:47.369Z,93154.63
2023-03-14T11:29:23.975Z,93147.78
2023-03-14T11:31:55.207Z,93145.38
2023-03-14T11:34:28.646Z,93147.34
2023-03-14T11:37:02.012Z,93164.63
2023-03-14T11:39:40.088Z,93163.75
2023-03-14T11:42:15.058Z,93146.31
2023-03-14T11:44:46.290Z,93150.59
2023-03-14T11:47:20.346Z,93152.66
2023-03-14T11:49:52.016Z,93152.50
2023-03-14T11:52:24.096Z,93155.38
2023-03-14T11:54:57.110Z,93144.94
2023-03-14T11:57:23.966Z,93142.94
2023-03-14T11:59:56.739Z,93150.59
2023-03-14T12:02:28.905Z,93153.56
2023-03-14T12:05:50.836Z,93142.94
2023-03-14T12:08:30.839Z,93148.38
2023-03-14T12:11:04.289Z,93150.03
2023-03-14T12:13:34.753Z,93153.94
2023-03-14T12:16:07.169Z,93155.34
2023-03-14T12:18:39.552Z,93161.13
2023-03-14T12:21:10.194Z,93168.38
2023-03-14T12:23:42.315Z,93174.97
2023-03-14T12:26:16.357Z,93184.94
2023-03-14T12:28:47.127Z,93193.19
2023-03-14T12:31:41.809Z,93183.69
2023-03-14T12:34:28.101Z,93194.81
2023-03-14T12:37:03.166Z,93186.38
2023-03-14T12:39:43.659Z,93203.72
2023-03-14T12:42:14.673Z,93195.59
2023-03-14T12:44:47.089Z,93191.38
2023-03-14T12:47:59.160Z,93195.28
2023-03-14T12:50:33.666Z,93196.19
2023-03-14T12:53:30.323Z,93204.44
2023-03-14T12:56:03.668Z,93208.63
2023-03-14T12:58:38.043Z,93217.69
2023-03-14T13:01:07.268Z,93219.53
2023-03-14T13:03:44.976Z,93220.31
2023-03-14T13:06:14.845Z,93246.97
2023-03-14T13:08:44.322Z,93235.25
2023-03-14T13:11:14.657Z,93249.50
2023-03-14T13:13:50.196Z,93245.25
2023-03-14T13:16:19.893Z,93255.03
2023-03-14T13:18:48.192Z,93265.72
2023-03-14T13:21:18.707Z,93286.06
2023-03-14T13:23:58.243Z,93294.13
2023-03-14T13:26:32.824Z,93295.34
2023-03-14T13:29:01.815Z,93292.53
2023-03-14T13:31:30.515Z,93296.06
2023-03-14T13:34:02.052Z,93299.31
2023-03-14T13:36:31.839Z,93295.97
2023-03-14T13:39:00.769Z,93306.00
2023-03-14T13:41:29.005Z,93315.75
2023-03-14T13:44:04.290Z,93318.81
2023-03-14T13:46:31.633Z,93331.34
2023-03-14T13:49:03.595Z,93327.28
2023-03-14T13:51:33.790Z,93358.94
2023-03-14T13:54:02.344Z,93346.59
2023-03-14T13:56:31.860Z,93361.94
2023-03-14T13:59:00.145Z,93388.75
2023-03-14T14:01:32.396Z,93379.25
2023-03-14T14:04:07.720Z,93395.13
2023-03-14T14:06:37.666Z,93399.31
2023-03-14T14:09:13.193Z,93422.16
2023-03-14T14:11:59.260Z,93441.91
2023-03-14T14:14:35.695Z,93447.44
2023-03-14T14:17:09.234Z,93468.44
2023-03-14T14:19:37.758Z,93506.38
2023-03-14T14:22:07.751Z,93483.19
2023-03-14T14:24:36.941Z,93496.63
2023-03-14T14:27:11.702Z,93490.19
2023-03-14T14:29:39.610Z,93523.28
2023-03-14T14:32:16.091Z,93528.22
2023-03-14T14:34:52.327Z,93517.88
2023-03-14T14:37:27.359Z,93503.44
2023-03-14T14:39:57.180Z,93511.16
2023-03-14T14:42:28.396Z,93513.84
2023-03-14T14:44:57.012Z,93516.53
2023-03-14T14:47:26.888Z,93519.41
2023-03-14T14:49:56.423Z,93515.19
2023-03-14T14:52:35.381Z,93517.22
2023-03-14T14:55:17.466Z,93519.81
2023-03-14T14:57:50.608Z,93535.56
2023-03-14T15:00:21.353Z,93515.75
2023-03-14T15:02:54.888Z,93530.44
2023-03-14T15:05:24.832Z,93532.72
2023-03-14T15:07:53.543Z,93539.66
2023-03-14T15:10:26.239Z,93542.72
2023-03-14T15:12:53.907Z,93551.56
2023-03-14T15:15:22.092Z,93563.94
2023-03-14T15:27:27.989Z,93617.34
2023-03-14T15:29:57.398Z,93635.59
2023-03-14T15:32:24.228Z,93639.72
2023-03-14T15:34:51.184Z,93638.75
2023-03-14T15:37:20.179Z,93656.72
2023-03-14T15:39:48.424Z,93647.22
2023-03-14T15:42:19.001Z,93656.56
2023-03-14T15:44:46.404Z,93687.41
2023-03-14T15:47:13.518Z,93675.03
2023-03-14T15:55:04.176Z,93661.44
2023-03-14T15:57:33.868Z,93698.59
2023-03-14T16:05:32.837Z,93712.03
2023-03-14T16:13:35.753Z,93720.69
2023-03-14T16:18:46.149Z,93729.69
2023-03-14T16:21:16.707Z,93729.69
2023-03-14T16:23:46.670Z,93729.97
2023-03-14T16:26:18.892Z,93740.78
2023-03-14T16:34:09.673Z,93756.31
2023-03-14T16:36:46.092Z,93767.66
2023-03-14T16:44:56.206Z,93815.63
2023-03-14T16:47:23.028Z,93822.47
2023-03-14T16:55:19.793Z,93841.97
2023-03-14T16:57:47.676Z,93850.66
2023-03-14T17:00:19.847Z,93864.59
2023-03-14T17:02:51.085Z,93872.50
2023-03-14T17:08:01.730Z,93876.44
2023-03-14T17:14:52.926Z,93892.78
2023-03-14T17:17:27.439Z,93892.22
2023-03-14T17:20:01.687Z,93882.50
2023-03-14T17:22:31.733Z,93891.44
2023-03-14T17:25:02.079Z,93890.13
2023-03-14T17:27:30.682Z,93898.28
2023-03-14T17:30:00.831Z,93899.59
2023-03-14T17:32:30.998Z,93903.81
2023-03-14T17:35:05.519Z,93919.06
2023-03-14T17:37:34.155Z,93915.88
2023-03-14T17:40:04.449Z,93920.38
2023-03-14T17:42:32.716Z,93925.63
2023-03-14T17:45:01.367Z,93935.59
2023-03-14T17:47:28.349Z,93928.22
2023-03-14T17:49:55.299Z,93943.22
2023-03-14T17:52:22.023Z,93935.09
2023-03-14T17:54:51.809Z,93940.84
2023-03-14T17:57:19.012Z,93936.94
2023-03-14T17:59:48.904Z,93944.28
2023-03-14T18:02:17.328Z,93949.25
2023-03-14T18:04:45.114Z,93946.63
2023-03-14T18:07:16.654Z,93951.66
2023-03-14T18:09:43.592Z,93939.03
2023-03-14T18:12:13.715Z,93948.50
2023-03-14T18:14:46.193Z,93946.91
2023-03-14T18:17:17.274Z,93947.94
2023-03-14T18:19:49.515Z,93943.94
2023-03-14T18:22:22.253Z,93952.84
2023-03-14T18:24:49.704Z,93944.69
2023-03-14T18:27:16.587Z,93943.41
2023-03-14T18:29:46.405Z,93943.66
2023-03-14T18:32:13.237Z,93948.13
2023-03-14T18:34:40.159Z,93951.00
2023-03-14T18:39:52.658Z,93953.09
2023-03-14T18:42:26.841Z,93949.91
2023-03-14T18:44:54.869Z,93944.38
2023-03-14T18:47:27.486Z,93947.56
2023-03-14T18:49:57.951Z,93948.34
2023-03-14T18:52:39.594Z,93955.44
2023-03-14T18:55:07.460Z,93953.84
2023-03-14T18:57:35.321Z,93955.66
2023-03-14T19:00:06.154Z,93961.94
2023-03-14T19:05:13.991Z,93965.03
2023-03-14T19:07:46.150Z,93966.84
2023-03-14T19:10:13.200Z,93966.81
2023-03-14T19:12:39.813Z,93956.81
2023-03-14T19:15:08.657Z,93951.81
2023-03-14T19:17:35.386Z,93958.84
2023-03-14T19:20:02.091Z,93962.16
2023-03-14T19:22:28.958Z,93965.59
2023-03-14T19:24:57.042Z,93963.50
2023-03-14T19:27:23.774Z,93966.91
2023-03-14T19:29:50.741Z,93963.00
2023-03-14T19:32:19.624Z,93962.50
2023-03-14T19:34:46.260Z,93974.91
2023-03-14T19:37:12.913Z,93973.06
2023-03-14T19:39:39.636Z,93975.91
2023-03-14T19:42:07.791Z,93967.78
2023-03-14T19:44:34.352Z,93972.19
2023-03-14T19:47:01.150Z,93972.72
2023-03-14T19:49:28.402Z,93981.63
2023-03-14T19:51:55.002Z,93992.66
2023-03-14T19:54:23.186Z,93999.78
2023-03-14T19:56:49.964Z,93998.50
2023-03-14T19:59:17.922Z,93991.94
2023-03-14T20:01:48.637Z,93989.34
2023-03-14T20:04:15.635Z,93998.06
2023-03-14T20:06:45.103Z,93993.88
2023-03-14T20:09:11.875Z,94007.53
2023-03-14T20:11:40.753Z,94018.88
2023-03-14T20:14:08.081Z,94021.22
2023-03-14T20:16:38.016Z,94026.22
2023-03-14T20:19:05.688Z,94035.69
2023-03-14T20:21:32.537Z,94028.34
2023-03-14T20:23:59.483Z,94039.41
2023-03-14T20:26:27.211Z,94059.91
2023-03-14T20:28:53.915Z,94063.31
2023-03-14T20:31:20.761Z,94066.22
2023-03-14T20:33:51.297Z,94075.72
2023-03-14T20:36:20.572Z,94081.47
2023-03-14T20:38:47.190Z,94109.84
2023-03-14T20:41:13.910Z,94129.53
2023-03-14T20:43:40.491Z,94135.47
2023-03-14T20:46:07.219Z,94124.66
2023-03-14T20:48:33.967Z,94124.56
2023-03-14T20:51:02.145Z,94133.91
2023-03-14T20:53:29.129Z,94134.91
2023-03-14T20:55:57.895Z,94129.88
2023-03-14T20:58:25.207Z,94132.13
2023-03-14T21:00:55.136Z,94139.94
2023-03-14T21:03:24.553Z,94143.34
2023-03-14T21:05:52.568Z,94146.44
2023-03-14T21:08:22.780Z,94151.94
2023-03-14T21:10:50.677Z,94155.53
2023-03-14T21:13:17.471Z,94162.56
2023-03-14T21:15:44.464Z,94164.41
2023-03-14T21:18:11.699Z,94171.47
2023-03-14T21:20:39.956Z,94174.88
2023-03-14T21:23:07.105Z,94179.34
2023-03-14T21:25:36.100Z,94187.72
2023-03-14T21:28:04.102Z,94183.97
2023-03-14T21:30:31.595Z,94187.88
2023-03-14T21:32:58.585Z,94185.50
2023-03-14T21:35:25.344Z,94194.03
2023-03-14T21:37:51.940Z,94202.06
2023-03-14T21:40:19.183Z,94203.69
2023-03-14T21:42:47.232Z,94195.56
2023-03-14T21:45:16.307Z,94191.13
2023-03-14T21:47:45.382Z,94203.47
2023-03-14T21:50:15.195Z,94205.03
2023-03-14T21:52:43.245Z,94193.34
2023-03-14T21:55:11.535Z,94193.75
2023-03-14T21:57:38.230Z,94200.22
2023-03-14T22:00:08.164Z,94192.28
2023-03-14T22:02:34.808Z,94197.53
2023-03-14T22:05:01.711Z,94195.22
2023-03-14T22:07:28.390Z,94196.00
2023-03-14T22:09:56.451Z,94192.28
2023-03-14T22:12:23.976Z,94184.97
2023-03-14T22:14:50.731Z,94199.50
2023-03-14T22:17:20.405Z,94198.78
2023-03-14T22:19:47.118Z,94188.38
2023-03-14T22:22:13.819Z,94175.31
2023-03-14T22:24:40.399Z,94177.44
2023-03-14T22:27:08.323Z,94177.13
2023-03-14T22:29:37.900Z,94181.22
2023-03-14T22:32:05.800Z,94179.25
2023-03-14T22:34:34.707Z,94181.78
2023-03-14T22:37:03.008Z,94179.66
2023-03-14T22:39:30.133Z,94182.28
2023-03-14T22:41:56.972Z,94181.19
2023-03-14T22:44:23.547Z,94173.78
2023-03-14T22:46:50.233Z,94162.75
2023-03-14T22:49:17.419Z,94166.41
2023-03-14T22:51:45.505Z,94152.91
2023-03-14T22:54:12.183Z,94150.47
2023-03-14T22:56:38.927Z,94154.81
2023-03-14T22:59:05.644Z,94157.06
2023-03-14T23:01:33.654Z,94158.47
2023-03-14T23:04:00.575Z,94155.63
2023-03-14T23:06:27.380Z,94157.78
2023-03-14T23:08:55.353Z,94148.66
2023-03-14T23:11:22.296Z,94147.38
2023-03-14T23:13:48.880Z,94146.38
2023-03-14T23:16:15.582Z,94145.81
2023-03-14T23:18:42.614Z,94141.44
2023-03-14T23:21:11.561Z,94142.06
2023-03-14T23:23:39.164Z,94137.34
2023-03-14T23:26:09.920Z,94143.94
2023-03-14T23:28:37.916Z,94138.78
2023-03-14T23:31:07.995Z,94137.81
2023-03-14T23:33:35.946Z,94131.31
2023-03-14T23:36:04.318Z,94135.22
2023-03-14T23:38:32.753Z,94140.44
2023-03-14T23:41:00.727Z,94136.72
2023-03-14T23:43:29.118Z,94122.59
2023-03-14T23:45:57.202Z,94109.22
2023-03-14T23:48:26.389Z,94118.13
2023-03-14T23:50:54.570Z,94107.41
2023-03-14T23:53:21.232Z,94110.88
2023-03-14T23:55:47.990Z,94110.94
2023-03-14T23:58:14.863Z,94103.63
